Time;durP1;ratioP1;P1;durP2;ratioP2;P2;SDS_P1;SDS_P2;PMS_P1;PMS_P2;Temp;Humidity;BMP_temperature;BMP_pressure;BME280_temperature;BME280_humidity;BME280_pressure;Samples;Min_cycle;Max_cycle;Signal;HPM_P1;HPM_P2
2021/12/22 00:04:46;;;;;;;15.10;7.70;;;23.60;46.50;;;;;;214276;1316;26538;-57
2021/12/22 00:09:51;;;;;;;18.70;8.60;;;23.70;46.30;;;;;;214277;1309;24837;-56
2021/12/22 00:14:55;;;;;;;14.60;8.00;;;23.80;46.10;;;;;;214248;1312;22821;-56
2021/12/22 00:20:00;;;;;;;17.60;8.20;;;23.70;46.40;;;;;;214208;1314;22772;-57
2021/12/22 00:25:05;;;;;;;16.90;8.40;;;23.80;46.10;;;;;;214271;1309;25665;-55
2021/12/22 00:30:18;;;;;;;17.10;8.10;;;23.70;46.00;;;;;;214200;1316;22671;-57
2021/12/22 00:35:29;;;;;;;17.60;8.50;;;23.70;46.00;;;;;;214278;1315;22577;-54
2021/12/22 00:40:36;;;;;;;18.20;8.80;;;23.60;46.00;;;;;;214223;1316;22636;-56
2021/12/22 00:45:42;;;;;;;13.90;7.70;;;23.60;46.30;;;;;;214303;1316;24276;-54
2021/12/22 00:50:46;;;;;;;16.50;8.20;;;23.60;45.90;;;;;;214445;1318;25599;-55
2021/12/22 00:55:50;;;;;;;17.00;8.10;;;23.60;46.00;;;;;;214409;1316;24276;-53
2021/12/22 01:00:54;;;;;;;15.20;8.20;;;23.60;46.60;;;;;;214413;1314;22806;-52
2021/12/22 01:06:01;;;;;;;13.80;7.90;;;23.70;47.90;;;;;;211977;1315;3341398;-55
2021/12/22 01:11:08;;;;;;;14.90;8.40;;;23.60;48.20;;;;;;214427;1316;24332;-54
2021/12/22 01:16:12;;;;;;;17.70;8.30;;;23.70;48.20;;;;;;214216;1316;23078;-54
2021/12/22 01:21:23;;;;;;;15.40;8.00;;;23.60;48.00;;;;;;214227;1316;22564;-56
2021/12/22 01:26:27;;;;;;;;;;;23.70;47.70;;;;;;214246;1316;22682;-56
2021/12/22 01:31:34;;;;;;;16.30;7.40;;;23.70;47.90;;;;;;214346;1316;24321;-54
2021/12/22 01:36:39;;;;;;;14.30;7.60;;;23.70;47.30;;;;;;214196;1318;22583;-57
2021/12/22 01:41:52;;;;;;;12.90;7.70;;;23.70;47.20;;;;;;214320;1316;24309;-58
2021/12/22 01:52:21;;;;;;;11.50;7.00;;;23.70;47.10;;;;;;214212;1315;25123;-54
2021/12/22 01:57:24;;;;;;;11.10;6.50;;;23.70;47.00;;;;;;214360;1314;22597;-56
2021/12/22 02:02:28;;;;;;;13.20;7.50;;;23.60;46.90;;;;;;214283;1316;22616;-55
2021/12/22 02:07:36;;;;;;;14.00;7.10;;;23.60;46.80;;;;;;214305;1310;22660;-57
2021/12/22 02:12:47;;;;;;;12.00;6.90;;;23.70;46.80;;;;;;214332;1314;24032;-55
2021/12/22 02:17:55;;;;;;;10.60;6.50;;;23.60;47.10;;;;;;214257;1309;22695;-57
2021/12/22 02:23:00;;;;;;;12.60;6.40;;;23.60;47.10;;;;;;214293;1309;22600;-56
2021/12/22 02:28:06;;;;;;;11.70;6.50;;;23.70;46.80;;;;;;214309;1314;25268;-55
2021/12/22 02:38:17;;;;;;;10.10;6.10;;;23.70;46.50;;;;;;214265;1309;22620;-55
2021/12/22 02:43:24;;;;;;;11.80;6.20;;;23.70;46.40;;;;;;214184;1309;22763;-55
2021/12/22 02:48:32;;;;;;;10.80;6.00;;;23.70;46.30;;;;;;214261;1312;22578;-55
2021/12/22 03:04:05;;;;;;;11.30;6.40;;;23.60;46.40;;;;;;214419;1317;22767;-56
2021/12/22 03:09:18;;;;;;;8.80;6.20;;;23.60;46.50;;;;;;214338;1316;22568;-54
2021/12/22 03:14:23;;;;;;;10.20;5.90;;;23.60;46.50;;;;;;214256;1318;24300;-56
2021/12/22 03:19:30;;;;;;;9.00;5.50;;;23.60;46.40;;;;;;214472;1316;26838;-56
2021/12/22 03:24:35;;;;;;;9.00;5.90;;;23.60;46.50;;;;;;214544;1317;22603;-53
2021/12/22 03:29:39;;;;;;;10.60;5.70;;;23.60;46.40;;;;;;214364;1314;24337;-54
2021/12/22 03:34:44;;;;;;;10.80;6.00;;;23.60;46.30;;;;;;214767;1309;22581;-54
2021/12/22 03:39:47;;;;;;;11.30;5.80;;;23.70;46.20;;;;;;214617;1316;22619;-55
2021/12/22 03:44:51;;;;;;;7.30;5.00;;;23.70;46.50;;;;;;214234;1309;22636;-55
2021/12/22 03:49:55;;;;;;;9.60;5.50;;;23.70;46.10;;;;;;213992;1312;22593;-55
2021/12/22 03:54:58;;;;;;;8.40;5.40;;;23.80;46.10;;;;;;214139;1309;22568;-56
2021/12/22 04:00:10;;;;;;;8.50;5.70;;;23.80;46.10;;;;;;214077;1309;22583;-52
2021/12/22 04:05:14;;;;;;;9.60;6.10;;;23.80;46.30;;;;;;214263;1309;22587;-54
2021/12/22 04:10:22;;;;;;;8.80;6.00;;;23.80;46.50;;;;;;214137;1312;24410;-54
2021/12/22 04:15:27;;;;;;;10.50;5.90;;;23.80;46.50;;;;;;214362;1316;24435;-55
2021/12/22 04:20:31;;;;;;;8.50;4.80;;;23.70;46.70;;;;;;214317;1318;24280;-56
2021/12/22 04:25:36;;;;;;;9.70;5.40;;;23.80;46.90;;;;;;214643;1314;24387;-53
2021/12/22 04:30:48;;;;;;;8.80;5.50;;;23.70;47.10;;;;;;214190;1316;22593;-55
2021/12/22 04:35:52;;;;;;;8.20;5.50;;;23.70;47.30;;;;;;214239;1309;22618;-55
2021/12/22 04:40:56;;;;;;;9.10;6.40;;;23.70;47.50;;;;;;214369;1316;26519;-56
2021/12/22 04:45:59;;;;;;;10.00;6.00;;;23.70;47.00;;;;;;214239;1316;24350;-55
2021/12/22 04:51:12;;;;;;;7.80;5.90;;;23.60;47.90;;;;;;214211;1316;22788;-54
2021/12/22 04:56:16;;;;;;;11.80;6.00;;;23.30;48.60;;;;;;214208;1316;22574;-59
2021/12/22 05:01:28;;;;;;;8.70;5.80;;;23.00;49.30;;;;;;214309;1312;23362;-54
2021/12/22 05:06:44;;;;;;;12.40;6.90;;;23.00;49.70;;;;;;214237;1316;22577;-55
2021/12/22 05:11:47;;;;;;;8.70;6.20;;;22.80;50.40;;;;;;214214;1312;22567;-56
2021/12/22 05:16:53;;;;;;;9.20;6.00;;;22.70;50.50;;;;;;214252;1309;22586;-53
2021/12/22 05:21:57;;;;;;;9.20;5.70;;;22.60;50.50;;;;;;214446;1310;26073;-52
2021/12/22 05:27:00;;;;;;;9.40;6.10;;;22.60;50.20;;;;;;214418;1312;22587;-55
2021/12/22 05:32:07;;;;;;;10.80;6.10;;;22.60;50.20;;;;;;214005;1317;22600;-56
2021/12/22 05:37:10;;;;;;;8.80;5.60;;;22.60;50.30;;;;;;214408;1313;22576;-55
2021/12/22 05:42:14;;;;;;;8.90;5.80;;;22.50;50.30;;;;;;214356;1315;22558;-53
2021/12/22 05:47:18;;;;;;;7.40;4.60;;;22.50;50.20;;;;;;214234;1313;26055;-57
2021/12/22 05:52:22;;;;;;;8.20;5.10;;;22.40;50.10;;;;;;214355;1315;22602;-55
2021/12/22 05:57:26;;;;;;;7.40;5.10;;;22.30;50.10;;;;;;214363;1315;24374;-56
2021/12/22 06:02:29;;;;;;;7.80;5.20;;;22.30;50.20;;;;;;214316;1315;22642;-54
2021/12/22 06:07:33;;;;;;;8.70;5.30;;;22.20;50.30;;;;;;214092;1309;22587;-55
2021/12/22 06:12:37;;;;;;;9.00;5.30;;;22.10;50.50;;;;;;213838;1312;25542;-53
2021/12/22 06:17:40;;;;;;;7.50;5.00;;;22.10;50.50;;;;;;214346;1314;22590;-53
2021/12/22 06:22:44;;;;;;;5.90;4.20;;;22.10;50.50;;;;;;214278;1312;22597;-56
2021/12/22 06:27:48;;;;;;;6.00;4.40;;;22.40;50.10;;;;;;214231;1315;24251;-55
2021/12/22 06:32:55;;;;;;;9.30;4.50;;;22.70;49.30;;;;;;214057;1309;25422;-54
2021/12/22 06:37:59;;;;;;;7.60;4.70;;;22.90;49.20;;;;;;214492;1313;22605;-54
2021/12/22 06:43:05;;;;;;;6.40;4.20;;;23.00;48.50;;;;;;214082;1312;24599;-55
2021/12/22 06:48:11;;;;;;;9.10;4.70;;;23.10;48.30;;;;;;214020;1310;24248;-54
2021/12/22 06:53:17;;;;;;;6.70;4.10;;;23.00;48.40;;;;;;214395;1309;25223;-54
2021/12/22 06:58:21;;;;;;;9.90;4.30;;;23.00;48.30;;;;;;214407;1315;22558;-56
2021/12/22 07:03:25;;;;;;;7.60;4.30;;;23.10;48.20;;;;;;214316;1309;24313;-57
2021/12/22 07:08:28;;;;;;;6.30;4.00;;;23.10;48.20;;;;;;214080;1312;23050;-57
2021/12/22 07:13:33;;;;;;;6.20;4.10;;;23.10;48.10;;;;;;214239;1310;22572;-59
2021/12/22 07:18:43;;;;;;;9.90;4.00;;;23.10;48.00;;;;;;214318;1309;25473;-56
2021/12/22 07:24:00;;;;;;;7.90;4.50;;;23.20;48.90;;;;;;214158;1309;25535;-55
2021/12/22 07:29:16;;;;;;;7.60;4.30;;;23.20;48.40;;;;;;213961;1309;25538;-55
2021/12/22 07:34:37;;;;;;;7.80;3.90;;;23.20;48.70;;;;;;214022;1312;22577;-51
2021/12/22 07:39:41;;;;;;;7.60;4.50;;;23.20;48.90;;;;;;214066;1309;22620;-53
2021/12/22 07:44:46;;;;;;;7.10;3.80;;;23.30;49.20;;;;;;213920;1312;25351;-56
2021/12/22 07:49:50;;;;;;;6.90;3.80;;;23.30;49.80;;;;;;213661;1311;24267;-55
2021/12/22 07:54:54;;;;;;;8.70;4.70;;;23.30;49.50;;;;;;213802;1315;22641;-51
2021/12/22 08:00:03;;;;;;;7.20;3.90;;;23.40;49.10;;;;;;214679;1315;22613;-54
2021/12/22 08:05:17;;;;;;;7.40;4.50;;;23.50;49.10;;;;;;214487;1309;22584;-56
2021/12/22 08:10:47;;;;;;;7.50;3.60;;;23.50;49.10;;;;;;214361;1309;22602;-51
2021/12/22 08:22:47;;;;;;;5.40;3.20;;;23.50;49.30;;;;;;214934;1309;25143;-53
2021/12/22 08:28:39;;;;;;;9.50;3.50;;;23.50;49.50;;;;;;214360;1316;24276;-51
2021/12/22 08:34:13;;;;;;;9.00;3.30;;;23.50;49.50;;;;;;213955;1312;24249;-53
2021/12/22 08:39:22;;;;;;;10.30;3.40;;;23.50;49.70;;;;;;213821;1309;25438;-56
2021/12/22 08:44:33;;;;;;;10.60;3.80;;;23.20;50.20;;;;;;214044;1316;24486;-57
2021/12/22 08:49:46;;;;;;;11.40;3.60;;;23.00;50.80;;;;;;214267;1309;22592;-52
2021/12/22 08:54:50;;;;;;;10.90;3.80;;;22.90;50.80;;;;;;214138;1314;22590;-53
2021/12/22 09:00:09;;;;;;;13.90;3.50;;;22.80;51.10;;;;;;214111;1309;25521;-57
2021/12/22 09:05:30;;;;;;;8.40;3.10;;;22.60;51.40;;;;;;213727;1309;239256;-57
2021/12/22 09:11:27;;;;;;;;;;;;;;;;;;;;;
2021/12/22 09:16:21;;;;;;;10.20;3.50;;;22.40;51.60;;;;;;214090;1309;22571;-53
2021/12/22 09:21:37;;;;;;;7.90;3.70;;;22.40;51.30;;;;;;214134;1312;24249;-54
2021/12/22 09:27:00;;;;;;;7.60;4.00;;;22.30;51.30;;;;;;213963;1314;22786;-55
2021/12/22 09:32:14;;;;;;;9.30;3.70;;;22.20;51.70;;;;;;213981;1309;24241;-52
2021/12/22 09:37:27;;;;;;;8.20;4.00;;;22.20;51.60;;;;;;214371;1309;23001;-54
2021/12/22 09:42:34;;;;;;;8.50;4.20;;;22.20;51.70;;;;;;214029;1309;22575;-56
2021/12/22 09:48:00;;;;;;;6.40;3.90;;;22.20;51.80;;;;;;213842;1309;24953;-52
2021/12/22 09:53:20;;;;;;;7.00;4.00;;;22.10;52.10;;;;;;213165;1315;22566;-55
2021/12/22 09:58:27;;;;;;;5.40;3.60;;;22.10;51.90;;;;;;214033;1309;25657;-54
2021/12/22 10:03:39;;;;;;;6.10;3.90;;;22.10;52.00;;;;;;214190;1313;24404;-54
2021/12/22 10:08:57;;;;;;;5.60;3.00;;;22.00;51.90;;;;;;214025;1312;22575;-56
2021/12/22 10:14:46;;;;;;;5.50;3.60;;;22.10;52.00;;;;;;214188;1309;25450;-54
2021/12/22 10:19:53;;;;;;;4.60;3.40;;;22.40;51.80;;;;;;214079;1312;25584;-52
2021/12/22 10:25:12;;;;;;;6.00;3.60;;;22.80;50.40;;;;;;214233;1312;22601;-52
2021/12/22 10:30:32;;;;;;;5.70;3.80;;;22.80;50.30;;;;;;214168;1309;25609;-53
2021/12/22 10:35:39;;;;;;;7.10;3.80;;;22.60;50.60;;;;;;214469;1312;22598;-55
2021/12/22 10:40:51;;;;;;;6.40;3.40;;;22.80;50.30;;;;;;214246;1317;22588;-52
2021/12/22 10:46:00;;;;;;;4.70;2.70;;;22.90;50.70;;;;;;214415;1309;25393;-52
2021/12/22 10:51:29;;;;;;;5.40;3.30;;;22.90;50.30;;;;;;213912;1318;25066;-52
2021/12/22 10:56:57;;;;;;;7.40;3.10;;;22.90;50.20;;;;;;214309;1317;25284;-54
2021/12/22 11:02:11;;;;;;;8.20;3.10;;;23.10;49.60;;;;;;214620;1316;24312;-51
2021/12/22 11:07:39;;;;;;;6.40;3.20;;;23.20;49.60;;;;;;213663;1316;24224;-55
2021/12/22 11:13:03;;;;;;;5.00;3.00;;;23.20;49.40;;;;;;214496;1313;25589;-55
2021/12/22 11:18:33;;;;;;;8.90;2.90;;;23.20;49.30;;;;;;214493;1315;24600;-55
2021/12/22 11:23:44;;;;;;;6.80;3.70;;;23.40;49.70;;;;;;214644;1316;22558;-52
2021/12/22 11:28:51;;;;;;;7.30;3.10;;;23.50;48.60;;;;;;214640;1317;25609;-54
2021/12/22 11:33:57;;;;;;;10.30;3.50;;;23.70;48.50;;;;;;214604;1317;22778;-52
2021/12/22 11:39:01;;;;;;;6.90;3.60;;;23.80;48.20;;;;;;214349;1317;22644;-55
2021/12/22 11:44:06;;;;;;;7.70;4.10;;;23.90;48.00;;;;;;214612;1315;25657;-51
2021/12/22 11:49:10;;;;;;;8.80;3.70;;;23.60;44.70;;;;;;214608;1316;22596;-51
2021/12/22 11:54:15;;;;;;;10.50;4.60;;;23.50;44.90;;;;;;214635;1316;25282;-52
2021/12/22 11:59:36;;;;;;;7.50;3.90;;;23.40;43.00;;;;;;214552;1315;24427;-54
2021/12/22 12:04:42;;;;;;;;;;;23.40;43.20;;;;;;214384;1318;22700;-52
2021/12/22 12:09:47;;;;;;;9.70;4.60;;;23.30;42.00;;;;;;214344;1309;22555;-56
2021/12/22 12:26:28;;;;;;;8.60;3.50;;;22.90;42.40;;;;;;214388;1315;22729;-54
2021/12/22 12:31:41;;;;;;;11.20;4.00;;;22.80;43.10;;;;;;214313;1315;22580;-53
2021/12/22 12:37:06;;;;;;;15.00;4.40;;;22.70;42.70;;;;;;214409;1316;25538;-53
2021/12/22 12:42:11;;;;;;;7.10;3.50;;;22.60;43.70;;;;;;214420;1315;25692;-57
2021/12/22 12:47:21;;;;;;;10.70;3.70;;;22.30;44.20;;;;;;214486;1315;25348;-51
2021/12/22 12:52:47;;;;;;;10.20;4.20;;;22.30;45.00;;;;;;214431;1315;24244;-52
2021/12/22 12:58:30;;;;;;;11.50;3.80;;;22.20;45.30;;;;;;214669;1309;24290;-55
2021/12/22 13:04:18;;;;;;;9.00;3.40;;;22.10;45.50;;;;;;214123;1315;22584;-55
2021/12/22 13:09:36;;;;;;;8.40;4.00;;;22.10;46.00;;;;;;214324;1309;25422;-52
2021/12/22 13:20:38;;;;;;;6.70;3.70;;;22.20;46.50;;;;;;214156;1313;25397;-53
2021/12/22 13:25:54;;;;;;;9.20;3.30;;;22.70;45.80;;;;;;214172;1316;22577;-55
2021/12/22 13:31:09;;;;;;;16.30;4.30;;;22.90;45.90;;;;;;214332;1315;22570;-55
2021/12/22 13:36:16;;;;;;;9.80;4.10;;;22.90;47.80;;;;;;213760;1318;25261;-54
2021/12/22 13:41:26;;;;;;;20.80;4.30;;;23.10;48.10;;;;;;214321;1318;24236;-57
2021/12/22 13:46:34;;;;;;;13.10;4.50;;;23.20;48.70;;;;;;213834;1318;22577;-53
2021/12/22 13:51:46;;;;;;;11.10;3.90;;;23.30;48.50;;;;;;214401;1315;24272;-54
2021/12/22 13:56:52;;;;;;;14.90;4.00;;;23.20;48.90;;;;;;214346;1315;24323;-54
2021/12/22 14:02:00;;;;;;;9.90;4.10;;;23.10;48.20;;;;;;214382;1316;24339;-58
2021/12/22 14:07:21;;;;;;;13.00;4.20;;;23.10;48.50;;;;;;213908;1317;25805;-53
2021/12/22 14:12:33;;;;;;;12.70;4.80;;;23.30;48.90;;;;;;214231;1315;24434;-53
2021/12/22 14:17:45;;;;;;;16.00;4.00;;;23.20;48.80;;;;;;214311;1316;22584;-53
2021/12/22 14:23:01;;;;;;;17.00;4.10;;;23.20;49.00;;;;;;214374;1316;25305;-52
2021/12/22 14:28:23;;;;;;;11.80;3.90;;;23.20;48.50;;;;;;214272;1316;25363;-56
2021/12/22 14:33:31;;;;;;;16.40;3.80;;;23.10;48.90;;;;;;214254;1319;22595;-54
2021/12/22 14:38:37;;;;;;;12.70;3.50;;;23.20;48.80;;;;;;213590;1318;25613;-53
2021/12/22 14:43:43;;;;;;;17.70;4.20;;;23.30;49.10;;;;;;214193;1319;24455;-51
2021/12/22 14:48:48;;;;;;;8.30;3.30;;;23.30;49.40;;;;;;213755;1318;24346;-54
2021/12/22 14:54:02;;;;;;;15.70;3.60;;;23.30;49.20;;;;;;214209;1316;22657;-56
2021/12/22 14:59:07;;;;;;;12.90;3.40;;;23.40;49.40;;;;;;214198;1309;25441;-52
2021/12/22 15:04:11;;;;;;;11.00;3.70;;;23.30;48.80;;;;;;214379;1317;25184;-53
2021/12/22 15:09:15;;;;;;;11.80;3.40;;;23.20;48.40;;;;;;214479;1313;25280;-54
2021/12/22 15:14:19;;;;;;;12.00;3.90;;;23.30;48.60;;;;;;214204;1315;24429;-55
2021/12/22 15:19:34;;;;;;;10.70;4.70;;;23.40;49.30;;;;;;214444;1315;25303;-56
2021/12/22 15:24:43;;;;;;;12.50;4.40;;;23.50;49.20;;;;;;213923;1316;24398;-55
2021/12/22 15:29:55;;;;;;;8.20;3.20;;;23.50;48.90;;;;;;213828;1315;22746;-52
2021/12/22 15:35:02;;;;;;;10.40;3.30;;;23.50;48.80;;;;;;214433;1316;22614;-53
2021/12/22 15:40:09;;;;;;;11.60;3.80;;;23.40;48.80;;;;;;214213;1317;22583;-53
2021/12/22 15:45:19;;;;;;;;;;;23.40;48.50;;;;;;214266;1316;22610;-52
2021/12/22 15:50:26;;;;;;;10.50;4.00;;;23.30;48.50;;;;;;214092;1317;25491;-52
2021/12/22 15:55:30;;;;;;;8.50;3.70;;;23.20;48.50;;;;;;214249;1317;22570;-52
2021/12/22 16:00:42;;;;;;;10.40;4.60;;;23.20;48.40;;;;;;216633;1317;22562;-53
2021/12/22 16:05:52;;;;;;;7.40;3.40;;;23.20;48.30;;;;;;214366;1315;22810;-52
2021/12/22 16:10:59;;;;;;;7.10;3.50;;;23.20;48.10;;;;;;214461;1316;22580;-52
2021/12/22 16:16:04;;;;;;;6.90;3.70;;;23.20;47.90;;;;;;214347;1315;22610;-53
2021/12/22 16:21:07;;;;;;;10.20;3.90;;;23.30;47.70;;;;;;214389;1316;22585;-54
2021/12/22 16:26:22;;;;;;;10.00;4.00;;;23.40;47.50;;;;;;214469;1316;22581;-53
2021/12/22 16:31:30;;;;;;;6.60;3.90;;;23.30;47.50;;;;;;213831;1318;24303;-51
2021/12/22 16:36:36;;;;;;;6.90;3.80;;;23.30;47.60;;;;;;214237;1316;24312;-54
2021/12/22 16:41:40;;;;;;;5.60;3.20;;;23.20;47.50;;;;;;214421;1314;25300;-55
2021/12/22 16:46:44;;;;;;;7.10;3.60;;;23.20;47.30;;;;;;214161;1316;22759;-53
2021/12/22 16:51:52;;;;;;;6.80;3.70;;;23.20;47.40;;;;;;214617;1314;24318;-54
2021/12/22 16:56:56;;;;;;;6.50;3.80;;;23.20;47.30;;;;;;214584;1315;22593;-51
2021/12/22 17:02:00;;;;;;;7.20;3.50;;;23.20;47.20;;;;;;214498;1316;22583;-54
2021/12/22 17:07:05;;;;;;;7.10;3.90;;;23.10;47.20;;;;;;213859;1315;360785;-55
2021/12/22 17:12:09;;;;;;;7.00;3.70;;;23.10;47.50;;;;;;214927;1313;23040;-52
2021/12/22 17:17:19;;;;;;;7.90;4.10;;;23.20;47.30;;;;;;214767;1316;24281;-54
2021/12/22 17:22:27;;;;;;;7.10;4.00;;;23.20;47.10;;;;;;214301;1316;25338;-52
2021/12/22 17:27:32;;;;;;;7.10;4.20;;;23.20;47.20;;;;;;214381;1316;24393;-53
2021/12/22 17:32:38;;;;;;;6.70;3.90;;;23.30;46.70;;;;;;214344;1315;25284;-54
2021/12/22 17:37:43;;;;;;;9.40;5.10;;;23.30;46.60;;;;;;214390;1316;22568;-53
2021/12/22 17:42:51;;;;;;;7.10;4.10;;;23.20;46.80;;;;;;214459;1316;25347;-52
2021/12/22 17:47:56;;;;;;;7.10;4.30;;;23.20;46.80;;;;;;214455;1315;23236;-52
2021/12/22 17:53:06;;;;;;;7.00;4.40;;;23.20;46.50;;;;;;214360;1316;24245;-51
2021/12/22 17:58:11;;;;;;;7.20;4.30;;;23.20;46.50;;;;;;214401;1315;24595;-51
2021/12/22 18:03:20;;;;;;;8.10;4.70;;;23.20;46.50;;;;;;214404;1312;25411;-56
2021/12/22 18:08:24;;;;;;;8.50;4.70;;;23.20;46.40;;;;;;213825;1312;25523;-53
2021/12/22 18:13:38;;;;;;;10.10;4.80;;;23.20;46.30;;;;;;214433;1312;22622;-55
2021/12/22 18:18:50;;;;;;;9.00;4.80;;;23.20;46.80;;;;;;214263;1313;22570;-52
2021/12/22 18:23:57;;;;;;;11.90;5.40;;;23.30;46.90;;;;;;214277;1312;22714;-52
2021/12/22 18:29:06;;;;;;;12.70;6.00;;;23.30;46.00;;;;;;213577;1312;24445;-53
2021/12/22 18:34:17;;;;;;;13.50;5.90;;;23.20;45.90;;;;;;214109;1309;22561;-53
2021/12/22 18:39:27;;;;;;;17.60;6.50;;;23.20;45.40;;;;;;214131;1310;22697;-54
2021/12/22 18:44:37;;;;;;;11.90;6.10;;;23.20;45.60;;;;;;214248;1312;22648;-53
2021/12/22 18:49:43;;;;;;;10.00;5.80;;;23.30;46.10;;;;;;214401;1316;22651;-56
2021/12/22 18:54:55;;;;;;;10.40;5.90;;;23.30;46.00;;;;;;214380;1316;22650;-54
2021/12/22 19:00:02;;;;;;;11.10;6.00;;;23.30;46.30;;;;;;214386;1313;24256;-56
2021/12/22 19:05:07;;;;;;;14.50;6.30;;;23.30;46.00;;;;;;214242;1312;24411;-52
2021/12/22 19:10:11;;;;;;;10.60;6.10;;;23.40;47.40;;;;;;213771;1318;22671;-55
2021/12/22 19:15:16;;;;;;;10.20;5.80;;;23.30;47.30;;;;;;214298;1315;24286;-54
2021/12/22 19:20:19;;;;;;;10.00;5.60;;;23.30;47.50;;;;;;214363;1316;25228;-56
2021/12/22 19:25:24;;;;;;;10.10;5.40;;;23.30;48.60;;;;;;214464;1315;24309;-52
2021/12/22 19:30:28;;;;;;;11.20;5.90;;;23.30;48.50;;;;;;214267;1312;25441;-55
2021/12/22 19:35:36;;;;;;;14.40;6.20;;;23.30;48.60;;;;;;214163;1312;26646;-54
2021/12/22 19:40:41;;;;;;;13.60;6.30;;;23.30;48.70;;;;;;214385;1315;26749;-51
2021/12/22 19:45:50;;;;;;;10.30;5.60;;;23.20;47.90;;;;;;214328;1316;24280;-54
2021/12/22 19:50:55;;;;;;;12.00;6.70;;;23.20;47.60;;;;;;214316;1314;24267;-52
2021/12/22 19:55:59;;;;;;;11.90;6.40;;;23.10;47.30;;;;;;214413;1315;24273;-53
2021/12/22 20:01:04;;;;;;;14.60;6.60;;;23.20;47.70;;;;;;214470;1315;25579;-55
2021/12/22 20:06:16;;;;;;;14.70;7.00;;;23.10;47.90;;;;;;214321;1315;22600;-54
2021/12/22 20:11:20;;;;;;;12.30;7.00;;;23.20;47.90;;;;;;213660;1309;24398;-54
2021/12/22 20:16:24;;;;;;;14.20;6.60;;;23.10;48.00;;;;;;214355;1309;22583;-54
2021/12/22 20:21:35;;;;;;;12.00;7.50;;;23.20;47.90;;;;;;214178;1314;25338;-52
2021/12/22 20:26:48;;;;;;;17.00;8.80;;;23.20;47.80;;;;;;214247;1314;22599;-54
2021/12/22 20:31:54;;;;;;;13.00;7.60;;;23.30;47.50;;;;;;214103;1312;24439;-54
2021/12/22 20:37:05;;;;;;;15.40;7.70;;;23.20;47.20;;;;;;213939;1314;25599;-51
2021/12/22 20:42:21;;;;;;;16.70;8.10;;;23.20;46.90;;;;;;214035;1309;24529;-54
2021/12/22 20:47:28;;;;;;;14.50;8.10;;;23.20;46.60;;;;;;213964;1309;22583;-52
2021/12/22 20:52:32;;;;;;;13.90;7.90;;;23.20;46.30;;;;;;213946;1310;23462;-56
2021/12/22 20:57:37;;;;;;;16.40;8.50;;;23.20;46.10;;;;;;214099;1314;25255;-54
2021/12/22 21:02:41;;;;;;;14.60;8.50;;;23.20;46.00;;;;;;213845;1309;25393;-53
2021/12/22 21:07:45;;;;;;;17.10;8.30;;;23.20;46.30;;;;;;214273;1316;23233;-56
2021/12/22 21:13:01;;;;;;;15.50;9.40;;;23.30;46.00;;;;;;213868;1316;22809;-57
2021/12/22 21:18:07;;;;;;;12.60;7.40;;;23.30;46.10;;;;;;214035;1316;24655;-53
2021/12/22 21:23:13;;;;;;;16.40;8.90;;;23.30;46.40;;;;;;213910;1313;22557;-53
2021/12/22 21:28:19;;;;;;;14.50;8.00;;;23.40;46.60;;;;;;213995;1309;24280;-52
2021/12/22 21:33:33;;;;;;;14.30;8.30;;;23.30;46.50;;;;;;213623;1313;22596;-55
2021/12/22 21:38:39;;;;;;;13.40;8.10;;;23.30;46.50;;;;;;214064;1313;22601;-51
2021/12/22 21:43:44;;;;;;;12.10;8.20;;;23.20;46.60;;;;;;213693;1311;24280;-55
2021/12/22 21:48:58;;;;;;;14.20;8.00;;;23.10;46.70;;;;;;213984;1317;26537;-55
2021/12/22 21:54:02;;;;;;;15.40;8.50;;;23.00;47.00;;;;;;213979;1312;27044;-54
2021/12/22 21:59:18;;;;;;;12.10;8.00;;;23.00;46.80;;;;;;213994;1309;22573;-52
2021/12/22 22:04:22;;;;;;;12.10;8.00;;;23.10;46.70;;;;;;213884;1309;22581;-54
2021/12/22 22:09:29;;;;;;;10.70;7.40;;;23.20;46.70;;;;;;213815;1312;26628;-51
2021/12/22 22:14:37;;;;;;;12.20;8.20;;;23.20;46.70;;;;;;213886;1312;22597;-55
2021/12/22 22:19:47;;;;;;;13.60;7.20;;;23.20;46.70;;;;;;214108;1312;22659;-55
2021/12/22 22:25:15;;;;;;;;;;;;;;;;;;;;;
2021/12/22 22:30:21;;;;;;;13.00;7.60;;;23.30;46.70;;;;;;213833;1309;25281;-55
2021/12/22 22:35:25;;;;;;;12.80;7.80;;;23.20;46.40;;;;;;215056;1312;22684;-55
2021/12/22 22:40:29;;;;;;;14.40;7.90;;;23.30;48.80;;;;;;214206;1309;22803;-54
2021/12/22 22:45:38;;;;;;;18.00;8.60;;;23.30;48.40;;;;;;214221;1314;27011;-57
2021/12/22 22:50:49;;;;;;;21.60;8.40;;;23.50;48.70;;;;;;213981;1309;22673;-53
2021/12/22 22:55:59;;;;;;;13.40;8.50;;;23.50;48.70;;;;;;214106;1309;22593;-52
2021/12/22 23:01:10;;;;;;;14.10;7.80;;;23.50;48.50;;;;;;213698;1313;22561;-52
2021/12/22 23:06:15;;;;;;;13.70;8.10;;;23.50;48.60;;;;;;214422;1315;22608;-54
2021/12/22 23:11:19;;;;;;;14.40;8.40;;;23.50;48.40;;;;;;214359;1315;22637;-53
2021/12/22 23:16:30;;;;;;;14.10;9.30;;;23.50;48.40;;;;;;214375;1316;25620;-54
2021/12/22 23:21:37;;;;;;;17.30;9.20;;;23.50;48.30;;;;;;214363;1310;25553;-54
2021/12/22 23:26:41;;;;;;;14.60;9.20;;;23.50;48.20;;;;;;214398;1315;25352;-52
2021/12/22 23:31:48;;;;;;;15.80;9.20;;;23.50;48.00;;;;;;214402;1316;22580;-55
2021/12/22 23:37:09;;;;;;;14.00;9.20;;;23.50;48.20;;;;;;214401;1315;22657;-53
2021/12/22 23:43:02;;;;;;;18.50;10.10;;;23.60;48.30;;;;;;214447;1315;25387;-54
2021/12/22 23:53:27;;;;;;;15.90;9.10;;;23.70;47.90;;;;;;214139;1309;24258;-56
2021/12/22 23:58:36;;;;;;;18.60;9.10;;;23.80;48.10;;;;;;214130;1309;26629;-56
